createdAt,value
2018-05-21T00:01:12.032Z,2.70
2018-05-21T00:03:39.514Z,2.33
2018-05-21T00:06:07.415Z,2.20
2018-05-21T00:08:35.385Z,1.83
2018-05-21T00:11:02.900Z,2.10
2018-05-21T00:13:30.870Z,1.97
2018-05-21T00:15:58.370Z,2.00
2018-05-21T00:18:26.351Z,1.67
2018-05-21T00:20:53.860Z,1.80
2018-05-21T00:23:21.766Z,1.97
2018-05-21T00:25:49.271Z,2.27
2018-05-21T00:28:16.756Z,2.10
2018-05-21T00:30:44.286Z,1.77
2018-05-21T00:33:11.785Z,2.30
2018-05-21T00:35:39.750Z,2.10
2018-05-21T00:38:07.243Z,2.23
2018-05-21T00:40:34.825Z,2.30
2018-05-21T00:43:02.315Z,1.77
2018-05-21T00:45:30.225Z,2.27
2018-05-21T00:47:58.102Z,2.20
2018-05-21T00:50:26.070Z,2.10
2018-05-21T00:52:53.894Z,1.70
2018-05-21T00:55:33.741Z,1.97
2018-05-21T00:58:01.330Z,1.70
2018-05-21T01:00:28.844Z,1.80
2018-05-21T01:02:56.815Z,1.93
2018-05-21T01:05:24.339Z,1.97
2018-05-21T01:07:51.825Z,2.60
2018-05-21T01:10:19.367Z,2.57
2018-05-21T01:12:46.855Z,1.70
2018-05-21T01:15:14.371Z,2.00
2018-05-21T01:17:41.863Z,1.90
2018-05-21T01:20:09.367Z,1.53
2018-05-21T01:22:36.876Z,2.50
2018-05-21T01:25:04.384Z,1.73
2018-05-21T01:27:32.359Z,2.33
2018-05-21T01:29:59.872Z,2.17
2018-05-21T01:32:27.418Z,2.07
2018-05-21T01:34:54.907Z,2.10
2018-05-21T01:37:22.429Z,1.90
2018-05-21T01:39:49.919Z,1.60
2018-05-21T01:42:17.427Z,1.53
2018-05-21T01:44:44.942Z,1.67
2018-05-21T01:47:12.467Z,2.17
2018-05-21T01:49:39.966Z,1.80
2018-05-21T01:52:07.623Z,1.70
2018-05-21T01:54:35.591Z,1.93
2018-05-21T01:57:03.166Z,1.63
2018-05-21T01:59:30.680Z,1.83
2018-05-21T02:01:58.584Z,1.60
2018-05-21T02:04:26.073Z,1.93
2018-05-21T02:06:53.591Z,1.63
2018-05-21T02:09:21.079Z,2.13
2018-05-21T02:11:48.583Z,1.70
2018-05-21T02:14:16.076Z,2.00
2018-05-21T02:16:43.684Z,1.80
2018-05-21T02:19:11.104Z,1.67
2018-05-21T02:21:38.611Z,1.67
2018-05-21T02:24:06.195Z,1.97
2018-05-21T02:26:33.725Z,1.53
2018-05-21T02:29:01.215Z,2.20
2018-05-21T02:31:28.732Z,1.53
2018-05-21T02:33:56.246Z,1.87
2018-05-21T02:36:24.152Z,1.53
2018-05-21T02:38:52.118Z,2.00
2018-05-21T02:41:19.628Z,1.80
2018-05-21T02:43:47.519Z,2.00
2018-05-21T02:46:15.493Z,1.47
2018-05-21T02:48:43.079Z,1.80
2018-05-21T02:51:10.670Z,2.00
2018-05-21T02:53:38.379Z,2.00
2018-05-21T02:56:06.280Z,1.90
2018-05-21T02:58:33.774Z,2.07
2018-05-21T03:01:01.309Z,1.50
2018-05-21T03:03:28.790Z,2.17
2018-05-21T03:05:56.281Z,2.27
2018-05-21T03:08:23.796Z,1.87
2018-05-21T03:10:51.287Z,1.40
2018-05-21T03:13:18.797Z,2.13
2018-05-21T03:15:46.287Z,2.00
2018-05-21T03:18:13.788Z,2.07
2018-05-21T03:20:41.278Z,1.53
2018-05-21T03:23:08.791Z,1.90
2018-05-21T03:25:36.269Z,1.90
2018-05-21T03:28:04.166Z,1.77
2018-05-21T03:30:31.652Z,2.10
2018-05-21T03:32:59.163Z,2.00
2018-05-21T03:35:26.682Z,1.70
2018-05-21T03:37:54.186Z,2.17
2018-05-21T03:40:22.088Z,2.10
2018-05-21T03:42:49.986Z,2.47
2018-05-21T03:45:17.534Z,1.90
2018-05-21T03:47:45.037Z,2.10
2018-05-21T03:50:12.914Z,2.37
2018-05-21T03:52:40.416Z,2.33
2018-05-21T03:55:07.921Z,2.60
2018-05-21T03:57:35.464Z,2.60
2018-05-21T04:00:14.834Z,2.47
2018-05-21T04:02:54.380Z,2.13
2018-05-21T04:05:21.871Z,2.67
2018-05-21T04:07:49.370Z,2.37
2018-05-21T04:10:16.955Z,2.17
2018-05-21T04:12:44.469Z,2.33
2018-05-21T04:15:12.018Z,2.43
2018-05-21T04:17:39.604Z,2.00
2018-05-21T04:20:07.094Z,2.60
2018-05-21T04:22:34.995Z,3.00
2018-05-21T04:25:02.962Z,2.93
2018-05-21T04:27:30.470Z,2.53
2018-05-21T04:29:58.350Z,3.00
2018-05-21T04:32:25.843Z,3.00
2018-05-21T04:34:53.748Z,2.60
2018-05-21T04:37:21.234Z,3.33
2018-05-21T04:39:49.139Z,2.63
2018-05-21T04:42:16.682Z,3.00
2018-05-21T04:44:44.197Z,2.80
2018-05-21T04:47:11.772Z,2.97
2018-05-21T04:49:39.747Z,3.07
2018-05-21T04:52:07.627Z,2.80
2018-05-21T04:54:35.214Z,3.00
2018-05-21T04:57:02.702Z,3.30
2018-05-21T04:59:30.202Z,3.03
2018-05-21T05:01:58.183Z,2.70
2018-05-21T05:04:25.771Z,3.33
2018-05-21T05:06:53.254Z,3.53
2018-05-21T05:09:20.840Z,3.97
2018-05-21T05:11:48.426Z,3.33
2018-05-21T05:14:16.002Z,3.03
2018-05-21T05:16:43.500Z,3.20
2018-05-21T05:19:11.080Z,3.87
2018-05-21T05:21:38.957Z,3.23
2018-05-21T05:24:06.462Z,3.47
2018-05-21T05:26:34.370Z,3.87
2018-05-21T05:29:02.270Z,3.27
2018-05-21T05:31:29.768Z,3.53
2018-05-21T05:33:57.274Z,3.30
2018-05-21T05:36:24.781Z,3.83
2018-05-21T05:38:52.274Z,3.73
2018-05-21T05:41:19.853Z,3.27
2018-05-21T05:43:47.365Z,3.40
2018-05-21T05:46:15.243Z,3.50
2018-05-21T05:48:42.830Z,3.53
2018-05-21T05:51:10.727Z,3.80
2018-05-21T05:53:38.623Z,3.93
2018-05-21T05:56:06.503Z,3.50
2018-05-21T05:58:34.485Z,4.07
2018-05-21T06:01:01.986Z,3.83
2018-05-21T06:03:29.885Z,3.83
2018-05-21T06:05:57.784Z,3.90
2018-05-21T06:08:25.741Z,3.67
2018-05-21T06:10:53.339Z,3.43
2018-05-21T06:13:20.924Z,3.80
2018-05-21T06:15:48.512Z,3.80
2018-05-21T06:18:16.092Z,4.33
2018-05-21T06:20:43.596Z,3.90
2018-05-21T06:23:11.570Z,3.47
2018-05-21T06:25:39.156Z,3.70
2018-05-21T06:28:06.735Z,3.83
2018-05-21T06:30:34.325Z,3.73
2018-05-21T06:33:01.806Z,3.77
2018-05-21T06:35:29.307Z,4.00
2018-05-21T06:37:57.188Z,3.83
2018-05-21T06:40:25.178Z,4.50
2018-05-21T06:42:52.659Z,3.80
2018-05-21T06:45:20.244Z,4.20
2018-05-21T06:47:47.899Z,3.83
2018-05-21T06:50:15.350Z,4.10
2018-05-21T06:52:42.908Z,3.70
2018-05-21T06:55:10.810Z,3.90
2018-05-21T06:57:38.692Z,4.07
2018-05-21T07:00:08.475Z,4.00
2018-05-21T07:02:35.959Z,4.40
2018-05-21T07:05:03.463Z,4.57
2018-05-21T07:07:30.953Z,4.50
2018-05-21T07:09:58.550Z,4.47
2018-05-21T07:12:26.135Z,3.73
2018-05-21T07:14:54.018Z,4.77
2018-05-21T07:17:21.503Z,4.60
2018-05-21T07:19:49.007Z,4.43
2018-05-21T07:22:16.496Z,4.57
2018-05-21T07:24:44.461Z,4.30
2018-05-21T07:27:11.956Z,4.37
2018-05-21T07:29:39.438Z,4.70
2018-05-21T07:32:06.933Z,4.20
2018-05-21T07:34:34.419Z,4.37
2018-05-21T07:37:01.955Z,4.10
2018-05-21T07:39:29.438Z,4.77
2018-05-21T07:41:56.943Z,4.63
2018-05-21T07:44:24.427Z,4.33
2018-05-21T07:46:51.921Z,4.50
2018-05-21T07:49:19.503Z,4.77
2018-05-21T07:51:47.007Z,4.90
2018-05-21T07:54:14.982Z,5.23
2018-05-21T07:56:42.571Z,4.77
2018-05-21T07:59:10.050Z,4.97
2018-05-21T08:01:37.639Z,4.63
2018-05-21T08:04:05.119Z,5.50
2018-05-21T08:06:32.617Z,5.03
2018-05-21T08:09:00.104Z,4.90
2018-05-21T08:11:28.077Z,5.60
2018-05-21T08:13:55.549Z,5.20
2018-05-21T08:16:23.139Z,5.10
2018-05-21T08:18:50.623Z,5.23
2018-05-21T08:21:18.215Z,5.23
2018-05-21T08:23:46.020Z,5.17
2018-05-21T08:26:14.002Z,5.63
2018-05-21T08:28:41.587Z,5.23
2018-05-21T08:31:09.096Z,5.37
2018-05-21T08:33:36.651Z,5.70
2018-05-21T08:36:04.235Z,5.07
2018-05-21T08:38:31.819Z,5.47
2018-05-21T08:40:59.407Z,6.30
2018-05-21T08:43:26.904Z,6.30
2018-05-21T08:45:54.882Z,5.27
2018-05-21T08:48:22.369Z,5.10
2018-05-21T08:50:49.884Z,5.50
2018-05-21T08:53:17.764Z,5.50
2018-05-21T08:55:45.655Z,4.83
2018-05-21T08:58:13.555Z,4.97
2018-05-21T09:00:41.440Z,4.77
2018-05-21T09:03:09.419Z,5.03
2018-05-21T09:05:36.898Z,5.20
2018-05-21T09:08:04.390Z,5.80
2018-05-21T09:10:31.879Z,5.27
2018-05-21T09:12:59.779Z,5.53
2018-05-21T09:15:27.267Z,5.73
2018-05-21T09:17:55.162Z,5.20
2018-05-21T09:20:23.231Z,5.17
2018-05-21T09:22:50.815Z,4.80
2018-05-21T09:25:18.315Z,5.30
2018-05-21T09:27:46.219Z,5.70
2018-05-21T09:30:14.103Z,5.43
2018-05-21T09:32:42.078Z,4.80
2018-05-21T09:35:10.374Z,5.10
2018-05-21T09:37:37.877Z,4.80
2018-05-21T09:40:05.755Z,4.63
2018-05-21T09:42:33.339Z,4.43
2018-05-21T09:45:00.827Z,4.43
2018-05-21T09:47:28.459Z,4.40
2018-05-21T09:49:55.953Z,5.27
2018-05-21T09:52:23.454Z,5.17
2018-05-21T09:54:50.929Z,5.40
2018-05-21T09:57:18.431Z,5.20
2018-05-21T09:59:45.910Z,4.83
2018-05-21T10:02:13.441Z,4.80
2018-05-21T10:04:41.368Z,4.97
2018-05-21T10:07:08.991Z,5.27
2018-05-21T10:09:36.801Z,4.83
2018-05-21T10:12:04.784Z,5.20
2018-05-21T10:14:32.669Z,4.67
2018-05-21T10:17:00.174Z,4.60
2018-05-21T10:19:28.234Z,4.73
2018-05-21T10:21:56.114Z,4.10
2018-05-21T10:24:23.646Z,4.03
2018-05-21T10:26:51.204Z,4.97
2018-05-21T10:29:18.711Z,4.47
2018-05-21T10:31:46.186Z,4.57
2018-05-21T10:34:15.000Z,4.90
2018-05-21T10:36:42.884Z,4.77
2018-05-21T10:39:10.792Z,5.03
2018-05-21T10:41:38.665Z,4.63
2018-05-21T10:44:06.166Z,4.40
2018-05-21T10:46:34.055Z,4.53
2018-05-21T10:49:01.963Z,4.57
2018-05-21T10:51:29.574Z,4.70
2018-05-21T10:53:57.436Z,4.33
2018-05-21T10:56:24.920Z,3.90
2018-05-21T10:58:52.471Z,4.57
2018-05-21T11:01:19.968Z,4.27
2018-05-21T11:03:47.490Z,4.27
2018-05-21T11:06:14.969Z,4.10
2018-05-21T11:08:42.467Z,4.00
2018-05-21T11:11:09.950Z,4.30
2018-05-21T11:13:37.574Z,3.90
2018-05-21T11:16:05.064Z,4.80
2018-05-21T11:18:32.957Z,3.97
2018-05-21T11:21:00.829Z,4.33
2018-05-21T11:23:28.331Z,4.30
2018-05-21T11:25:56.235Z,4.20
2018-05-21T11:28:24.136Z,4.63
2018-05-21T11:30:51.691Z,4.27
2018-05-21T11:33:19.186Z,3.60
2018-05-21T11:35:47.074Z,3.80
2018-05-21T11:38:14.975Z,4.30
2018-05-21T11:40:42.855Z,4.40
2018-05-21T11:43:10.431Z,3.67
2018-05-21T11:45:37.917Z,3.87
2018-05-21T11:48:05.504Z,4.40
2018-05-21T11:50:33.045Z,4.13
2018-05-21T11:53:00.979Z,4.10
2018-05-21T11:55:29.179Z,3.97
2018-05-21T11:57:56.657Z,4.53
2018-05-21T12:00:24.149Z,4.67
2018-05-21T12:02:51.729Z,4.07
2018-05-21T12:05:19.315Z,4.13
2018-05-21T12:07:46.855Z,3.97
2018-05-21T12:10:14.717Z,3.57
2018-05-21T12:12:42.682Z,3.67
2018-05-21T12:15:10.261Z,4.50
2018-05-21T12:17:37.742Z,4.30
2018-05-21T12:20:05.242Z,3.77
2018-05-21T12:22:33.138Z,4.57
2018-05-21T12:25:01.047Z,3.97
2018-05-21T12:27:28.600Z,4.07
2018-05-21T12:29:56.108Z,4.17
2018-05-21T12:32:23.991Z,3.87
2018-05-21T12:34:51.975Z,4.00
2018-05-21T12:37:19.563Z,3.73
2018-05-21T12:39:47.065Z,3.90
2018-05-21T12:42:14.550Z,4.43
2018-05-21T12:44:42.439Z,4.47
2018-05-21T12:47:10.310Z,4.70
2018-05-21T12:49:38.207Z,3.93
2018-05-21T12:52:05.716Z,3.90
2018-05-21T12:54:33.334Z,3.80
2018-05-21T12:57:01.178Z,4.23
2018-05-21T12:59:29.180Z,3.97
2018-05-21T13:01:57.164Z,3.83
2018-05-21T13:04:25.138Z,4.30
2018-05-21T13:06:52.638Z,4.37
2018-05-21T13:09:20.526Z,4.30
2018-05-21T13:11:48.032Z,3.90
2018-05-21T13:14:15.908Z,3.80
2018-05-21T13:16:43.402Z,3.80
2018-05-21T13:19:11.278Z,4.33
2018-05-21T13:21:38.783Z,3.90
2018-05-21T13:24:06.689Z,4.57
2018-05-21T13:26:34.192Z,4.67
2018-05-21T13:29:01.716Z,4.20
2018-05-21T13:31:29.289Z,4.40
2018-05-21T13:33:56.783Z,4.10
2018-05-21T13:36:24.366Z,4.30
2018-05-21T13:38:51.850Z,3.93
2018-05-21T13:41:19.350Z,3.90
2018-05-21T13:43:47.222Z,4.10
2018-05-21T13:46:14.718Z,3.97
2018-05-21T13:48:42.292Z,4.03
2018-05-21T13:51:09.795Z,4.03
2018-05-21T13:53:37.775Z,4.13
2018-05-21T13:56:05.355Z,4.43
2018-05-21T13:58:32.856Z,4.37
2018-05-21T14:01:00.378Z,4.50
2018-05-21T14:03:27.907Z,4.63
2018-05-21T14:05:55.485Z,4.40
2018-05-21T14:08:23.079Z,4.43
2018-05-21T14:10:50.658Z,4.20
2018-05-21T14:13:18.231Z,3.87
2018-05-21T14:15:45.710Z,3.97
2018-05-21T14:18:13.211Z,4.40
2018-05-21T14:20:40.699Z,4.80
2018-05-21T14:23:08.200Z,4.20
2018-05-21T14:25:36.078Z,4.40
2018-05-21T14:28:03.584Z,3.73
2018-05-21T14:30:31.464Z,3.90
2018-05-21T14:32:59.364Z,4.20
2018-05-21T14:35:27.508Z,3.90
2018-05-21T14:37:55.020Z,3.90
2018-05-21T14:40:22.493Z,4.37
2018-05-21T14:42:50.101Z,4.23
2018-05-21T14:45:17.591Z,4.40
2018-05-21T14:47:45.493Z,4.10
2018-05-21T14:50:13.453Z,4.27
2018-05-21T14:52:41.052Z,3.70
2018-05-21T14:55:09.062Z,4.10
2018-05-21T14:57:36.925Z,4.30
2018-05-21T15:00:04.406Z,4.73
2018-05-21T15:02:31.929Z,4.40
2018-05-21T15:04:59.812Z,4.17
2018-05-21T15:07:27.785Z,4.23
2018-05-21T15:09:55.375Z,4.70
2018-05-21T15:12:22.964Z,4.13
2018-05-21T15:14:50.482Z,4.90
2018-05-21T15:17:17.986Z,5.10
2018-05-21T15:19:45.599Z,4.00
2018-05-21T15:22:13.192Z,4.80
2018-05-21T15:24:40.680Z,3.83
2018-05-21T15:27:08.185Z,4.10
2018-05-21T15:29:36.118Z,4.90
2018-05-21T15:32:03.643Z,4.40
2018-05-21T15:34:31.130Z,4.03
2018-05-21T15:36:58.613Z,4.10
2018-05-21T15:39:26.114Z,4.50
2018-05-21T15:41:54.077Z,4.00
2018-05-21T15:44:21.579Z,4.10
2018-05-21T15:46:49.155Z,4.10
2018-05-21T15:49:16.650Z,4.30
2018-05-21T15:51:44.535Z,3.93
2018-05-21T15:54:12.051Z,4.53
2018-05-21T15:56:39.599Z,4.30
2018-05-21T15:59:07.111Z,4.17
2018-05-21T16:01:34.863Z,4.30
2018-05-21T16:04:02.367Z,4.20
2018-05-21T16:06:30.247Z,4.40
2018-05-21T16:08:57.751Z,4.27
2018-05-21T16:11:25.631Z,4.23
2018-05-21T16:13:53.601Z,4.50
2018-05-21T16:16:21.082Z,4.27
2018-05-21T16:18:48.591Z,4.13
2018-05-21T16:21:16.476Z,3.97
2018-05-21T16:23:43.978Z,4.87
2018-05-21T16:26:11.855Z,3.90
2018-05-21T16:28:39.763Z,4.03
2018-05-21T16:31:07.645Z,3.47
2018-05-21T16:33:35.543Z,3.90
2018-05-21T16:36:03.513Z,4.27
2018-05-21T16:38:31.010Z,4.20
2018-05-21T16:40:58.583Z,3.90
2018-05-21T16:43:26.088Z,4.20
2018-05-21T16:45:54.066Z,4.23
2018-05-21T16:48:21.656Z,4.37
2018-05-21T16:50:49.647Z,4.50
2018-05-21T16:53:17.228Z,4.30
2018-05-21T16:55:44.805Z,4.13
2018-05-21T16:58:12.403Z,4.63
2018-05-21T17:00:39.886Z,4.03
2018-05-21T17:03:07.372Z,3.50
2018-05-21T17:05:34.874Z,3.60
2018-05-21T17:08:02.839Z,3.70
2018-05-21T17:10:30.343Z,4.50
2018-05-21T17:12:58.223Z,4.03
2018-05-21T17:15:25.803Z,3.80
2018-05-21T17:17:53.378Z,4.03
2018-05-21T17:20:20.979Z,4.27
2018-05-21T17:22:49.068Z,4.27
2018-05-21T17:25:16.566Z,4.00
2018-05-21T17:27:44.465Z,4.60
2018-05-21T17:30:12.432Z,4.30
2018-05-21T17:32:39.910Z,4.03
2018-05-21T17:35:07.406Z,3.90
2018-05-21T17:37:34.882Z,4.90
2018-05-21T17:40:02.405Z,3.67
2018-05-21T17:42:29.942Z,3.83
2018-05-21T17:44:57.431Z,4.27
2018-05-21T17:47:25.020Z,4.80
2018-05-21T17:49:52.603Z,4.40
2018-05-21T17:52:20.114Z,4.10
2018-05-21T17:54:48.083Z,4.30
2018-05-21T17:57:15.573Z,4.17
2018-05-21T17:59:43.475Z,4.27
2018-05-21T18:02:10.968Z,4.30
2018-05-21T18:04:38.872Z,4.67
2018-05-21T18:07:06.353Z,4.60
2018-05-21T18:09:33.849Z,4.20
2018-05-21T18:12:01.339Z,4.00
2018-05-21T18:14:28.875Z,3.93
2018-05-21T18:16:56.451Z,4.93
2018-05-21T18:19:25.203Z,3.90
2018-05-21T18:21:52.752Z,4.90
2018-05-21T18:24:20.259Z,4.50
2018-05-21T18:26:48.231Z,4.00
2018-05-21T18:29:15.720Z,4.23
2018-05-21T18:31:43.618Z,4.20
2018-05-21T18:34:11.591Z,4.20
2018-05-21T18:36:39.183Z,4.43
2018-05-21T18:39:06.791Z,4.50
2018-05-21T18:41:34.692Z,5.33
2018-05-21T18:44:02.340Z,5.10
2018-05-21T18:46:29.842Z,4.73
2018-05-21T18:48:57.723Z,4.93
2018-05-21T18:51:25.397Z,4.87
2018-05-21T18:53:52.927Z,4.33
2018-05-21T18:56:20.811Z,4.87
2018-05-21T18:58:48.311Z,4.80
2018-05-21T19:01:15.853Z,3.97
2018-05-21T19:03:43.330Z,4.60
2018-05-21T19:06:10.877Z,4.23
2018-05-21T19:08:38.410Z,4.13
2018-05-21T19:11:05.912Z,4.93
2018-05-21T19:13:33.889Z,4.30
2018-05-21T19:16:01.789Z,5.07
2018-05-21T19:18:29.854Z,4.70
2018-05-21T19:20:57.453Z,4.43
2018-05-21T19:23:24.930Z,4.07
2018-05-21T19:25:52.506Z,4.47
2018-05-21T19:28:19.999Z,3.90
2018-05-21T19:30:47.587Z,5.23
2018-05-21T19:33:15.174Z,4.80
2018-05-21T19:35:42.675Z,4.07
2018-05-21T19:38:10.211Z,4.37
2018-05-21T19:40:37.727Z,5.50
2018-05-21T19:43:05.228Z,4.07
2018-05-21T19:45:32.895Z,4.13
2018-05-21T19:48:00.521Z,4.77
2018-05-21T19:50:28.022Z,5.10
2018-05-21T19:52:55.628Z,4.17
2018-05-21T19:55:23.061Z,4.03
2018-05-21T19:57:50.639Z,4.40
2018-05-21T20:00:18.520Z,3.70
2018-05-21T20:02:46.489Z,4.10
2018-05-21T20:05:14.009Z,5.37
2018-05-21T20:07:42.019Z,4.80
2018-05-21T20:10:09.494Z,4.33
2018-05-21T20:12:37.042Z,4.20
2018-05-21T20:15:04.528Z,3.87
2018-05-21T20:17:32.052Z,4.00
2018-05-21T20:19:59.590Z,3.93
2018-05-21T20:22:27.206Z,4.17
2018-05-21T20:24:55.087Z,3.80
2018-05-21T20:27:22.982Z,3.80
2018-05-21T20:29:50.854Z,4.10
2018-05-21T20:32:18.444Z,4.90
2018-05-21T20:34:45.933Z,4.50
2018-05-21T20:37:13.941Z,4.57
2018-05-21T20:39:41.407Z,4.20
2018-05-21T20:42:08.906Z,4.10
2018-05-21T20:44:36.878Z,4.13
2018-05-21T20:47:04.394Z,4.27
2018-05-21T20:49:32.349Z,4.00
2018-05-21T20:51:59.831Z,3.70
2018-05-21T20:54:27.336Z,3.87
2018-05-21T20:56:54.907Z,4.60
2018-05-21T20:59:22.495Z,4.33
2018-05-21T21:01:49.989Z,4.00
2018-05-21T21:04:17.558Z,3.77
2018-05-21T21:06:45.039Z,4.17
2018-05-21T21:09:12.658Z,4.27
2018-05-21T21:11:40.537Z,4.30
2018-05-21T21:14:08.435Z,3.77
2018-05-21T21:16:36.319Z,4.10
2018-05-21T21:19:03.824Z,4.10
2018-05-21T21:21:31.316Z,3.77
2018-05-21T21:23:58.824Z,3.90
2018-05-21T21:26:26.327Z,3.90
2018-05-21T21:28:53.832Z,3.83
2018-05-21T21:31:21.410Z,3.93
2018-05-21T21:33:48.915Z,3.73
2018-05-21T21:36:16.891Z,4.13
2018-05-21T21:38:44.480Z,4.07
2018-05-21T21:41:12.064Z,4.23
2018-05-21T21:43:39.551Z,3.87
2018-05-21T21:46:07.061Z,3.87
2018-05-21T21:48:34.611Z,3.90
2018-05-21T21:51:02.118Z,3.90
2018-05-21T21:53:29.999Z,3.40
2018-05-21T21:55:57.978Z,3.77
2018-05-21T21:58:25.454Z,4.30
2018-05-21T22:00:53.047Z,3.43
2018-05-21T22:03:20.540Z,3.57
2018-05-21T22:05:48.110Z,3.73
2018-05-21T22:08:15.702Z,3.70
2018-05-21T22:10:43.201Z,3.30
2018-05-21T22:13:11.182Z,3.60
2018-05-21T22:15:38.695Z,3.63
2018-05-21T22:18:06.200Z,4.23
2018-05-21T22:20:33.820Z,3.60
2018-05-21T22:23:01.312Z,3.83
2018-05-21T22:25:28.804Z,3.80
2018-05-21T22:27:56.384Z,3.57
2018-05-21T22:30:23.871Z,3.27
2018-05-21T22:32:51.369Z,3.40
2018-05-21T22:35:19.256Z,3.80
2018-05-21T22:37:47.177Z,3.63
2018-05-21T22:40:14.716Z,3.50
2018-05-21T22:42:42.215Z,3.40
2018-05-21T22:45:09.699Z,3.43
2018-05-21T22:47:37.599Z,3.10
2018-05-21T22:50:05.475Z,3.37
2018-05-21T22:52:33.055Z,2.97
2018-05-21T22:55:00.543Z,3.73
2018-05-21T22:57:28.123Z,2.97
2018-05-21T22:59:55.608Z,3.20
2018-05-21T23:02:23.105Z,3.40
2018-05-21T23:04:50.988Z,3.30
2018-05-21T23:07:18.561Z,3.13
2018-05-21T23:09:46.068Z,3.80
2018-05-21T23:12:13.952Z,3.40
2018-05-21T23:14:41.535Z,3.10
2018-05-21T23:17:09.010Z,3.40
2018-05-21T23:19:36.596Z,3.47
2018-05-21T23:22:04.080Z,3.13
2018-05-21T23:24:31.659Z,3.17
2018-05-21T23:26:59.143Z,3.00
2018-05-21T23:29:26.653Z,3.37
2018-05-21T23:31:54.614Z,3.70
2018-05-21T23:34:22.105Z,3.30
2018-05-21T23:36:49.582Z,3.30
2018-05-21T23:39:17.170Z,3.53
2018-05-21T23:41:44.760Z,3.00
2018-05-21T23:44:12.251Z,3.60
2018-05-21T23:46:40.147Z,3.40
2018-05-21T23:49:08.118Z,3.40
2018-05-21T23:51:35.711Z,3.10
2018-05-21T23:54:03.222Z,3.13
2018-05-21T23:56:31.131Z,4.10
2018-05-21T23:58:58.609Z,3.13
